Time;durP1;ratioP1;P1;durP2;ratioP2;P2;SDS_P1;SDS_P2;PMS_P1;PMS_P2;Temp;Humidity;BMP_temperature;BMP_pressure;BME280_temperature;BME280_humidity;BME280_pressure;Samples;Min_cycle;Max_cycle;Signal;HPM_P1;HPM_P2
2022/02/04 00:04:44;;;;;;;12.93;7.07;;;;;;;-4.42;100.00;95416.66;5048772;28;20045;-48
2022/02/04 00:20:54;;;;;;;11.32;5.35;;;;;;;-4.65;100.00;95415.97;5004295;28;20096;-46
2022/02/04 00:23:30;;;;;;;6.75;5.20;;;;;;;-4.61;100.00;95423.25;5041552;28;20060;-49
2022/02/04 00:26:04;;;;;;;7.53;4.95;;;;;;;-4.64;100.00;95422.69;5047278;28;20068;-48
2022/02/04 00:33:45;;;;;;;6.93;5.07;;;;;;;-4.72;100.00;95435.19;5054121;28;20119;-48
2022/02/04 00:38:43;;;;;;;12.70;5.95;;;;;;;-4.73;100.00;95433.59;5062451;28;20064;-48
2022/02/04 00:41:13;;;;;;;12.35;5.90;;;;;;;-4.67;100.00;95428.00;5049590;28;20053;-48
2022/02/04 00:43:40;;;;;;;10.57;5.20;;;;;;;-4.66;100.00;95422.00;5047635;28;20045;-46
2022/02/04 00:46:15;;;;;;;9.65;5.68;;;;;;;-4.62;100.00;95426.69;5050990;28;20052;-47
2022/02/04 00:51:55;;;;;;;9.13;5.75;;;;;;;-4.60;100.00;95421.50;5053034;28;20117;-47
2022/02/04 00:54:29;;;;;;;14.40;6.50;;;;;;;-4.65;100.00;95415.97;5048606;28;20106;-50
2022/02/04 01:26:39;;;;;;;11.50;5.57;;;;;;;-5.11;100.00;95414.50;5054817;28;20056;-47
2022/02/04 01:29:08;;;;;;;9.23;5.97;;;;;;;-5.20;100.00;95403.38;5051016;28;20044;-49
2022/02/04 01:31:34;;;;;;;12.80;7.03;;;;;;;-5.33;100.00;95410.31;5046543;28;20517;-50
2022/02/04 01:34:01;;;;;;;22.27;10.35;;;;;;;-5.58;100.00;95407.94;5046989;28;20041;-48
2022/02/04 01:36:28;;;;;;;39.90;15.70;;;;;;;-5.57;100.00;95391.75;5046672;28;20414;-50
2022/02/04 01:38:55;;;;;;;35.25;15.60;;;;;;;-5.47;100.00;95403.78;5049818;28;20080;-47
2022/02/04 01:41:21;;;;;;;15.93;10.15;;;;;;;-5.52;100.00;95391.44;5046309;28;20500;-48
2022/02/04 01:43:50;;;;;;;13.93;8.98;;;;;;;-5.43;100.00;95410.22;5049469;28;20571;-48
2022/02/04 01:46:17;;;;;;;11.18;6.53;;;;;;;-5.49;100.00;95406.44;5046551;28;20128;-49
2022/02/04 01:48:44;;;;;;;10.32;6.63;;;;;;;-5.54;100.00;95402.63;5047320;28;20029;-50
2022/02/04 01:51:14;;;;;;;10.18;6.32;;;;;;;-5.57;100.00;95416.34;5045772;28;20106;-48
2022/02/04 01:53:43;;;;;;;11.77;6.40;;;;;;;-5.68;100.00;95401.94;5049865;28;20429;-48
2022/02/04 01:56:12;;;;;;;10.95;7.32;;;;;;;-5.81;100.00;95406.34;5047108;28;20481;-49
2022/02/04 01:58:40;;;;;;;15.05;7.32;;;;;;;-5.93;100.00;95407.25;5051503;28;20095;-48
2022/02/04 02:01:07;;;;;;;15.20;7.38;;;;;;;-5.98;100.00;95415.25;5048489;28;20045;-47
2022/02/04 02:03:34;;;;;;;13.95;6.88;;;;;;;-6.05;100.00;95414.09;5044781;28;20047;-48
2022/02/04 02:06:07;;;;;;;11.02;6.10;;;;;;;-6.27;100.00;95402.19;5044713;28;20052;-48
2022/02/04 02:08:34;;;;;;;14.85;6.20;;;;;;;-6.27;100.00;95414.88;5047867;28;20040;-48
2022/02/04 02:11:00;;;;;;;8.52;5.15;;;;;;;-6.37;100.00;95415.56;5045681;28;20541;-48
2022/02/04 02:13:41;;;;;;;9.15;5.10;;;;;;;-6.39;100.00;95412.31;5048415;28;20052;-47
2022/02/04 02:48:40;;;;;;;7.50;3.97;;;;;;;-6.85;100.00;95404.72;5045504;28;20450;-47
2022/02/04 02:59:25;;;;;;;9.43;4.80;;;;;;;-6.85;100.00;95400.44;5047349;28;20080;-48
2022/02/04 03:01:52;;;;;;;6.93;4.13;;;;;;;-6.86;100.00;95398.84;5047857;28;20110;-47
2022/02/04 03:04:19;;;;;;;6.88;4.32;;;;;;;-6.85;100.00;95395.38;5050282;28;20041;-47
2022/02/04 03:06:48;;;;;;;10.35;4.95;;;;;;;-6.87;100.00;95392.16;5043156;28;20061;-46
2022/02/04 03:09:16;;;;;;;8.75;5.50;;;;;;;-6.81;100.00;95401.84;5051132;28;20170;-47
2022/02/04 03:11:43;;;;;;;6.97;5.18;;;;;;;-6.78;100.00;95396.56;5046120;28;20131;-47
2022/02/04 03:14:11;;;;;;;17.40;6.35;;;;;;;-6.73;100.00;95404.63;5048797;28;20113;-47
2022/02/04 03:16:38;;;;;;;10.60;5.78;;;;;;;-6.76;100.00;95404.06;5046252;28;20045;-47
2022/02/04 03:19:07;;;;;;;12.85;6.68;;;;;;;-6.89;100.00;95404.13;5045694;28;20071;-48
2022/02/04 03:24:05;;;;;;;10.35;5.65;;;;;;;-6.96;100.00;95387.75;5048321;28;21671;-50
2022/02/04 03:26:46;;;;;;;7.05;5.07;;;;;;;-6.90;100.00;95392.38;5044303;28;20486;-50
2022/02/04 03:29:17;;;;;;;5.32;4.25;;;;;;;-6.88;100.00;95392.25;5044041;28;20398;-53
2022/02/04 03:31:49;;;;;;;5.78;3.70;;;;;;;-6.93;100.00;95397.66;5044081;28;20048;-46
2022/02/04 03:34:17;;;;;;;8.27;4.97;;;;;;;-7.18;100.00;95393.53;5045592;28;20053;-47
2022/02/04 03:36:44;;;;;;;8.52;4.90;;;;;;;-7.23;100.00;95388.78;5045564;28;24531;-47
2022/02/04 03:39:11;;;;;;;9.05;4.43;;;;;;;-7.25;100.00;95388.09;5042976;28;20532;-48
2022/02/04 03:41:38;;;;;;;8.32;4.93;;;;;;;-7.22;100.00;95387.88;5049572;28;20499;-48
2022/02/04 03:44:05;;;;;;;7.53;4.88;;;;;;;-7.40;100.00;95384.91;5043541;28;20095;-47
2022/02/04 03:46:32;;;;;;;8.98;4.43;;;;;;;-7.51;100.00;95388.19;5046537;28;20041;-47
2022/02/04 03:48:58;;;;;;;4.95;2.90;;;;;;;-7.54;100.00;95383.34;5043783;28;20047;-48
2022/02/04 03:51:25;;;;;;;8.70;4.25;;;;;;;-7.56;100.00;95380.13;5044140;28;20049;-47
2022/02/04 03:53:52;;;;;;;7.55;4.22;;;;;;;-7.56;100.00;95390.22;5046061;28;20048;-47
2022/02/04 03:56:20;;;;;;;11.60;3.72;;;;;;;-7.62;100.00;95380.50;5045582;28;20099;-47
2022/02/04 03:58:47;;;;;;;5.05;3.00;;;;;;;-7.70;100.00;95378.53;5045134;28;20102;-46
2022/02/04 04:01:13;;;;;;;5.72;4.35;;;;;;;-7.66;100.00;95381.66;5046492;28;20037;-48
2022/02/04 04:03:40;;;;;;;4.30;2.85;;;;;;;-7.75;100.00;95367.13;5043956;28;20046;-49
2022/02/04 04:06:08;;;;;;;6.88;3.78;;;;;;;-7.73;100.00;95378.72;5043260;28;20472;-50
2022/02/04 04:08:35;;;;;;;6.15;2.78;;;;;;;-7.72;100.00;95374.50;5047266;28;20487;-48
2022/02/04 04:11:02;;;;;;;5.35;3.40;;;;;;;-7.75;100.00;95374.69;5044926;28;20052;-47
2022/02/04 04:13:29;;;;;;;9.02;4.63;;;;;;;-7.74;100.00;95378.81;5045016;28;20072;-47
2022/02/04 04:15:56;;;;;;;5.20;3.65;;;;;;;-7.67;100.00;95372.44;5044890;28;20041;-47
2022/02/04 04:18:23;;;;;;;3.78;3.00;;;;;;;-7.66;100.00;95374.06;5048535;28;20068;-48
2022/02/04 04:20:50;;;;;;;9.38;4.53;;;;;;;-7.70;100.00;95372.66;5048977;28;20041;-48
2022/02/04 04:23:16;;;;;;;4.07;3.00;;;;;;;-7.74;100.00;95373.78;5043878;28;20052;-47
2022/02/04 04:25:44;;;;;;;7.05;4.30;;;;;;;-7.66;100.00;95366.47;5044368;28;20045;-47
2022/02/04 04:28:14;;;;;;;8.65;4.78;;;;;;;-7.63;100.00;95368.81;5045655;28;20053;-47
2022/02/04 04:30:40;;;;;;;8.60;5.47;;;;;;;-7.57;100.00;95375.94;5052748;28;20041;-51
2022/02/04 04:33:07;;;;;;;14.23;7.00;;;;;;;-7.53;100.00;95374.81;5047619;28;20120;-47
2022/02/04 04:35:35;;;;;;;12.90;7.45;;;;;;;-7.52;100.00;95366.31;5048402;28;20049;-47
2022/02/04 04:38:23;;;;;;;14.80;6.32;;;;;;;-7.44;100.00;95367.50;5046577;28;20049;-50
2022/02/04 05:29:58;;;;;;;9.75;5.65;;;;;;;-6.49;100.00;95388.56;5043822;28;20194;-46
2022/02/04 05:32:25;;;;;;;14.07;4.80;;;;;;;-6.48;100.00;95377.53;5050156;28;20041;-48
2022/02/04 05:34:52;;;;;;;21.95;7.53;;;;;;;-6.33;100.00;95390.78;5045533;28;20053;-47
2022/02/04 05:37:21;;;;;;;14.75;7.45;;;;;;;-6.32;100.00;95381.44;5045890;28;20537;-48
2022/02/04 05:42:19;;;;;;;18.85;11.10;;;;;;;-6.28;100.00;95387.88;5045734;28;20079;-48
2022/02/04 05:44:55;;;;;;;13.25;7.85;;;;;;;-6.20;100.00;95391.47;5045460;28;20044;-48
2022/02/04 05:47:21;;;;;;;;;;;;;;;-6.17;100.00;95391.25;5046950;28;20045;-47
2022/02/04 05:52:51;;;;;;;18.63;10.45;;;;;;;-6.14;100.00;95390.22;5045432;28;20060;-48
2022/02/04 05:58:17;;;;;;;22.92;8.65;;;;;;;-6.08;100.00;95399.91;5048129;28;20045;-48
2022/02/04 06:01:11;;;;;;;34.13;12.18;;;;;;;-6.01;100.00;95401.06;5048414;28;20033;-47
2022/02/04 06:11:54;;;;;;;26.55;13.23;;;;;;;-5.67;100.00;95388.34;5046380;28;20049;-46
2022/02/04 06:14:47;;;;;;;40.13;21.05;;;;;;;-5.47;100.00;95408.84;5045364;28;20045;-49
2022/02/04 06:22:51;;;;;;;36.67;17.60;;;;;;;-5.16;100.00;95411.56;5049018;28;20119;-47
2022/02/04 06:25:18;;;;;;;40.80;21.52;;;;;;;-5.15;100.00;95418.22;5045051;28;20044;-49
2022/02/04 06:27:46;;;;;;;43.78;20.23;;;;;;;-5.16;100.00;95416.63;5045447;28;20055;-48
2022/02/04 06:30:14;;;;;;;55.65;25.98;;;;;;;-5.01;100.00;95420.50;5045702;28;20037;-50
2022/02/04 06:32:41;;;;;;;72.93;30.27;;;;;;;-4.96;100.00;95415.88;5045155;28;20049;-47
2022/02/04 06:35:10;;;;;;;45.85;24.23;;;;;;;-4.83;100.00;95418.25;5045108;28;20044;-47
2022/02/04 06:37:36;;;;;;;83.18;34.60;;;;;;;-4.78;100.00;95431.41;5044495;28;20103;-48
2022/02/04 06:40:05;;;;;;;102.60;33.78;;;;;;;-4.76;100.00;95428.72;5045599;28;20041;-47
2022/02/04 06:42:32;;;;;;;90.32;31.10;;;;;;;-4.66;100.00;95429.63;5046103;28;20047;-48
2022/02/04 06:44:59;;;;;;;90.28;31.60;;;;;;;-4.60;100.00;95424.03;5045379;28;20056;-51
2022/02/04 06:47:28;;;;;;;96.35;35.58;;;;;;;-4.50;100.00;95422.38;5045400;28;20502;-49
2022/02/04 06:49:55;;;;;;;30.20;17.02;;;;;;;-4.55;100.00;95416.06;5045733;28;20045;-50
2022/02/04 06:52:22;;;;;;;29.92;12.07;;;;;;;-4.52;100.00;95426.78;5043660;28;20044;-47
2022/02/04 06:54:49;;;;;;;29.42;15.45;;;;;;;-4.48;99.73;95432.44;5043843;28;20044;-47
2022/02/04 06:57:16;;;;;;;23.05;12.48;;;;;;;-4.45;99.59;95427.91;5044691;28;20052;-47
2022/02/04 06:59:46;;;;;;;30.10;16.90;;;;;;;-4.38;99.26;95428.19;5045428;28;20043;-47
2022/02/04 07:02:14;;;;;;;26.80;13.88;;;;;;;-4.27;98.87;95430.69;5044167;28;20065;-47
2022/02/04 07:04:40;;;;;;;22.25;12.00;;;;;;;-4.27;98.03;95429.88;5044071;28;20515;-47
2022/02/04 07:07:08;;;;;;;32.70;13.80;;;;;;;-4.29;96.86;95437.63;5042743;28;20135;-49
2022/02/04 07:09:45;;;;;;;24.23;11.27;;;;;;;-4.33;96.14;95420.22;5044563;28;20056;-47
2022/02/04 07:12:32;;;;;;;26.98;11.75;;;;;;;-4.36;96.98;95430.63;5043742;28;20041;-48
2022/02/04 07:17:35;;;;;;;19.30;8.57;;;;;;;-4.24;96.43;95438.06;5043916;28;20160;-48
2022/02/04 07:20:02;;;;;;;19.45;10.20;;;;;;;-4.10;96.31;95442.03;5048882;28;20040;-50
2022/02/04 07:22:31;;;;;;;23.40;11.18;;;;;;;-4.05;95.86;95439.91;5046382;28;21164;-47
2022/02/04 07:25:01;;;;;;;19.52;10.30;;;;;;;-3.92;95.86;95442.25;5050302;28;20040;-47
2022/02/04 07:27:30;;;;;;;24.27;14.63;;;;;;;-3.81;95.85;95436.28;5046624;28;20045;-48
2022/02/04 07:29:57;;;;;;;27.67;15.10;;;;;;;-3.67;95.52;95438.50;5045623;28;20549;-48
2022/02/04 07:42:53;;;;;;;17.13;10.25;;;;;;;-3.22;95.47;95439.00;5046550;28;20048;-47
2022/02/04 07:45:21;;;;;;;28.83;11.02;;;;;;;-3.14;95.07;95444.28;5045595;28;20750;-48
2022/02/04 07:47:49;;;;;;;25.30;10.18;;;;;;;-3.01;95.12;95455.00;5047834;28;20437;-52
2022/02/04 07:50:21;;;;;;;18.23;8.30;;;;;;;-2.88;95.24;95439.50;5043530;28;20091;-52
2022/02/04 07:52:49;;;;;;;14.45;8.32;;;;;;;-2.74;95.41;95436.56;5043504;28;20108;-47
2022/02/04 07:55:16;;;;;;;19.40;8.70;;;;;;;-2.63;94.88;95427.97;5049218;28;20115;-47
2022/02/04 07:57:44;;;;;;;21.52;9.85;;;;;;;-2.56;94.62;95423.91;5044234;28;20044;-47
2022/02/04 08:00:14;;;;;;;18.17;9.60;;;;;;;-2.46;94.66;95433.31;5044462;28;20041;-47
2022/02/04 08:02:42;;;;;;;17.73;9.40;;;;;;;-2.31;95.14;95426.84;5047499;28;20094;-47
2022/02/04 08:05:11;;;;;;;16.45;8.80;;;;;;;-2.14;95.56;95422.81;5045316;28;20076;-48
2022/02/04 08:07:49;;;;;;;19.77;9.15;;;;;;;-1.87;96.11;95428.91;5041357;28;20057;-53
2022/02/04 08:21:23;;;;;;;15.50;7.18;;;;;;;-1.46;88.71;95432.81;5046973;28;20107;-47
2022/02/04 08:27:00;;;;;;;16.63;9.00;;;;;;;-1.49;86.38;95427.16;5054202;28;20061;-46
2022/02/04 08:29:45;;;;;;;18.85;9.38;;;;;;;-1.57;86.15;95425.28;5048516;28;20080;-47
2022/02/04 08:38:12;;;;;;;8.70;5.78;;;;;;;-1.56;84.15;95444.81;5046172;28;20045;-47
2022/02/04 08:55:58;;;;;;;13.65;8.63;;;;;;;-0.66;83.78;95424.50;5049175;28;20048;-47
2022/02/04 09:06:35;;;;;;;21.02;11.20;;;;;;;-0.07;83.24;95435.03;5001583;28;20581;-49
2022/02/04 09:09:05;;;;;;;18.60;8.18;;;;;;;0.02;82.09;95429.03;5003206;28;20132;-47
2022/02/04 09:17:04;;;;;;;17.65;8.73;;;;;;;0.16;80.71;95415.66;5046544;28;20041;-49
2022/02/04 09:19:45;;;;;;;18.63;9.32;;;;;;;0.15;81.39;95408.91;5046683;28;20052;-49
2022/02/04 09:24:48;;;;;;;20.23;9.05;;;;;;;0.06;79.70;95414.94;5048694;28;20060;-47
2022/02/04 09:27:15;;;;;;;7.93;4.10;;;;;;;-0.08;79.90;95412.94;5046188;28;20072;-47
2022/02/04 09:29:42;;;;;;;9.75;5.05;;;;;;;-0.14;80.03;95413.56;5048946;28;20525;-47
2022/02/04 09:32:09;;;;;;;12.68;5.85;;;;;;;-0.23;80.87;95405.81;5049599;28;20506;-46
2022/02/04 09:34:36;;;;;;;10.95;6.50;;;;;;;-0.22;80.26;95399.75;5047136;28;20053;-46
2022/02/04 09:37:22;;;;;;;11.25;5.57;;;;;;;-0.33;80.39;95399.97;5045510;28;20041;-48
2022/02/04 09:39:49;;;;;;;23.48;10.80;;;;;;;-0.25;81.05;95387.22;5050157;28;20118;-46
2022/02/04 09:42:16;;;;;;;17.73;10.52;;;;;;;0.14;81.43;95394.47;5051550;28;20071;-47
2022/02/04 09:44:47;;;;;;;13.20;5.82;;;;;;;0.25;80.22;95387.50;5048495;28;20049;-48
2022/02/04 09:47:22;;;;;;;25.23;9.07;;;;;;;0.52;79.65;95383.94;5045969;28;20052;-49
2022/02/04 09:50:17;;;;;;;22.48;11.70;;;;;;;0.71;78.47;95383.69;5045986;28;20040;-49
2022/02/04 10:18:05;;;;;;;18.42;9.20;;;;;;;1.57;73.11;95389.41;5046718;28;20087;-48
2022/02/04 10:20:33;;;;;;;20.92;10.35;;;;;;;1.74;72.61;95374.00;5047607;28;20048;-48
2022/02/04 10:23:02;;;;;;;30.70;11.55;;;;;;;2.12;72.69;95369.09;5048503;28;20045;-47
2022/02/04 10:25:35;;;;;;;17.33;9.43;;;;;;;2.24;69.86;95372.94;5047248;28;20051;-47
2022/02/04 10:28:25;;;;;;;19.38;9.80;;;;;;;2.61;71.53;95363.78;5047999;28;20037;-47
2022/02/04 10:31:20;;;;;;;26.08;10.35;;;;;;;2.94;70.21;95355.91;5046603;28;20049;-47
2022/02/04 10:33:48;;;;;;;20.48;11.25;;;;;;;3.30;70.31;95357.91;5049973;28;20056;-49
2022/02/04 10:37:00;;;;;;;27.17;11.52;;;;;;;3.64;67.32;95353.13;5050321;28;20060;-47
2022/02/04 10:48:32;;;;;;;25.55;11.68;;;;;;;4.18;66.94;95339.22;5030003;28;20236;-49
2022/02/04 10:59:25;;;;;;;26.10;12.27;;;;;;;4.73;64.35;95331.13;5045485;28;20079;-47
2022/02/04 11:35:26;;;;;;;23.67;11.85;;;;;;;5.73;55.05;95301.81;5044361;28;20052;-46
2022/02/04 11:44:12;;;;;;;27.80;9.98;;;;;;;4.86;57.28;95299.50;5044317;28;20041;-48
2022/02/04 11:54:56;;;;;;;24.83;12.15;;;;;;;4.92;57.36;95298.78;5049393;28;20075;-47
2022/02/04 11:57:34;;;;;;;26.45;10.32;;;;;;;4.46;55.95;95288.75;5048410;28;20078;-46
2022/02/04 12:00:18;;;;;;;27.10;10.32;;;;;;;4.93;58.29;95284.88;5046376;28;20041;-46
2022/02/04 12:02:47;;;;;;;20.48;9.93;;;;;;;5.37;56.57;95276.13;5048505;28;20049;-46
2022/02/04 12:05:16;;;;;;;27.90;12.00;;;;;;;5.67;56.07;95270.75;5047585;28;20468;-46
2022/02/04 12:07:47;;;;;;;28.92;11.73;;;;;;;5.83;54.36;95260.13;5047893;28;20051;-49
2022/02/04 12:10:20;;;;;;;20.88;10.30;;;;;;;6.07;52.81;95263.28;5049508;28;20530;-49
2022/02/04 12:12:52;;;;;;;18.77;10.23;;;;;;;6.19;53.08;95258.34;5050831;28;20048;-47
2022/02/04 12:15:31;;;;;;;18.00;10.70;;;;;;;6.24;51.35;95271.50;5051013;28;20045;-50
2022/02/04 12:18:04;;;;;;;22.15;10.70;;;;;;;6.05;52.07;95268.63;5048721;28;20592;-45
2022/02/04 12:20:56;;;;;;;34.90;14.48;;;;;;;6.22;52.80;95263.13;5051644;28;20044;-47
2022/02/04 12:23:26;;;;;;;21.48;11.07;;;;;;;5.93;51.57;95255.41;5047989;28;20041;-47
2022/02/04 12:26:03;;;;;;;34.35;14.50;;;;;;;6.21;52.22;95246.84;5054405;28;20048;-47
2022/02/04 12:28:42;;;;;;;42.05;15.20;;;;;;;6.62;51.01;95252.91;5048903;28;20104;-47
2022/02/04 12:31:24;;;;;;;27.15;11.50;;;;;;;6.84;52.10;95250.97;5046512;28;20418;-46
2022/02/04 12:33:58;;;;;;;24.67;10.75;;;;;;;7.13;52.54;95249.00;5048093;28;20045;-48
2022/02/04 12:36:29;;;;;;;22.23;11.65;;;;;;;7.08;49.56;95247.81;5054443;28;20045;-50
2022/02/04 12:39:07;;;;;;;37.63;13.25;;;;;;;6.81;49.22;95248.78;5048968;28;20048;-48
2022/02/04 12:41:40;;;;;;;22.63;11.13;;;;;;;5.99;50.43;95240.16;5048197;28;20049;-48
2022/02/04 12:44:16;;;;;;;27.90;11.52;;;;;;;6.18;51.79;95242.03;5049055;28;20049;-46
2022/02/04 12:46:47;;;;;;;32.78;11.82;;;;;;;6.16;51.33;95244.03;5054171;28;20411;-46
2022/02/04 12:49:20;;;;;;;24.02;11.98;;;;;;;6.45;52.14;95226.59;5050338;28;20122;-46
2022/02/04 12:54:40;;;;;;;28.65;12.98;;;;;;;7.18;49.87;95216.31;5048791;28;20040;-47
2022/02/04 12:59:55;;;;;;;18.58;9.68;;;;;;;7.30;49.09;95213.94;5046150;28;20044;-50
2022/02/04 13:02:44;;;;;;;25.30;10.43;;;;;;;7.23;49.06;95218.31;5048246;28;20044;-50
2022/02/04 13:08:21;;;;;;;35.17;11.02;;;;;;;5.93;51.67;95229.56;5046302;28;20457;-51
2022/02/04 13:11:03;;;;;;;23.67;10.85;;;;;;;5.96;53.90;95227.59;5046883;28;20045;-50
2022/02/04 13:13:41;;;;;;;31.95;10.93;;;;;;;6.18;54.49;95205.81;5046632;28;20476;-46
2022/02/04 13:16:09;;;;;;;27.58;13.18;;;;;;;6.37;54.85;95203.50;5047635;28;20044;-48
2022/02/04 13:18:36;;;;;;;27.38;13.50;;;;;;;7.08;53.76;95201.19;5046786;28;20068;-46
2022/02/04 13:21:03;;;;;;;22.13;10.18;;;;;;;7.76;50.88;95201.88;5049056;28;20095;-47
2022/02/04 13:23:32;;;;;;;24.35;11.57;;;;;;;8.18;49.09;95195.38;5046979;28;20391;-50
2022/02/04 13:26:05;;;;;;;18.23;8.52;;;;;;;8.44;48.30;95198.84;5051305;28;20052;-46
2022/02/04 13:28:38;;;;;;;16.95;9.43;;;;;;;8.56;47.74;95192.00;5046587;28;20037;-47
2022/02/04 13:31:08;;;;;;;17.70;10.45;;;;;;;8.68;47.55;95189.53;5048098;28;20049;-46
2022/02/04 13:33:38;;;;;;;19.27;10.65;;;;;;;8.87;45.76;95193.00;5047071;28;20037;-47
2022/02/04 13:36:35;;;;;;;21.90;10.82;;;;;;;8.82;46.27;95185.03;5045689;28;20118;-47
2022/02/04 13:39:55;;;;;;;24.23;10.88;;;;;;;8.89;45.36;95196.19;5048477;28;20851;-46
2022/02/04 13:42:28;;;;;;;20.27;10.23;;;;;;;9.04;45.68;95182.09;5045409;28;20500;-46
2022/02/04 13:45:00;;;;;;;35.15;16.23;;;;;;;8.74;45.24;95180.91;5045869;28;20048;-48
2022/02/04 13:57:55;;;;;;;31.25;14.70;;;;;;;11.48;39.36;95175.81;5044895;28;20506;-47
2022/02/04 14:00:38;;;;;;;28.90;15.30;;;;;;;12.08;36.64;95184.38;5045592;28;21621;-47
2022/02/04 14:03:26;;;;;;;15.82;8.80;;;;;;;12.60;34.76;95183.50;5045071;28;20045;-47
2022/02/04 14:06:12;;;;;;;18.88;9.82;;;;;;;12.81;34.03;95193.28;5046590;28;20047;-48
2022/02/04 14:08:52;;;;;;;20.17;11.68;;;;;;;12.90;34.34;95190.31;5041472;28;20506;-47
2022/02/04 14:11:30;;;;;;;16.52;9.00;;;;;;;12.28;35.45;95189.22;5043591;28;20099;-47
2022/02/04 14:14:07;;;;;;;27.63;11.98;;;;;;;11.63;36.14;95198.84;5044174;28;20041;-46
2022/02/04 14:16:35;;;;;;;18.92;9.65;;;;;;;10.82;36.55;95193.34;5047234;28;20040;-47
2022/02/04 14:19:03;;;;;;;18.23;10.25;;;;;;;10.13;38.78;95191.00;5043074;28;20767;-51
2022/02/04 14:21:35;;;;;;;17.52;8.07;;;;;;;9.74;39.31;95193.06;5045570;28;20124;-48
2022/02/04 14:24:09;;;;;;;16.13;9.52;;;;;;;9.37;40.33;95198.19;5042950;28;20139;-47
2022/02/04 14:26:42;;;;;;;20.92;9.80;;;;;;;8.86;41.45;95196.63;5048074;28;20064;-47
2022/02/04 14:36:59;;;;;;;23.50;13.00;;;;;;;7.83;44.51;95182.75;5047014;28;20109;-47
2022/02/04 14:53:37;;;;;;;23.02;11.68;;;;;;;5.81;52.43;95174.22;5046347;28;20048;-47
2022/02/04 14:59:18;;;;;;;35.55;19.48;;;;;;;5.34;54.21;95183.50;5042376;28;20060;-46
2022/02/04 15:01:51;;;;;;;106.95;42.15;;;;;;;5.12;54.45;95180.97;5039710;28;20037;-47
2022/02/04 15:04:53;;;;;;;108.30;48.13;;;;;;;4.94;56.20;95178.06;5044077;28;20052;-46
2022/02/04 15:07:12;;;;;;;60.58;27.27;;;;;;;4.65;56.31;95172.09;5043993;28;20510;-47
2022/02/04 15:09:47;;;;;;;57.15;26.70;;;;;;;4.63;56.29;95171.47;5044554;28;20067;-46
2022/02/04 15:12:14;;;;;;;65.40;25.77;;;;;;;4.55;56.52;95180.13;5044328;28;20415;-48
2022/02/04 15:14:41;;;;;;;67.80;32.65;;;;;;;4.45;57.30;95168.50;5045368;28;20579;-50
2022/02/04 15:17:08;;;;;;;46.92;22.20;;;;;;;4.32;57.01;95164.84;5047180;28;20082;-46
2022/02/04 15:19:36;;;;;;;49.00;22.58;;;;;;;4.20;57.61;95171.47;5044559;28;20055;-48
2022/02/04 15:22:07;;;;;;;39.13;20.55;;;;;;;4.06;58.17;95149.88;5043803;28;20070;-47
2022/02/04 15:24:35;;;;;;;58.13;25.92;;;;;;;4.02;58.75;95164.91;5047836;28;20057;-49
2022/02/04 15:27:03;;;;;;;39.92;20.70;;;;;;;3.90;59.06;95163.00;5045652;28;20044;-48
2022/02/04 15:29:32;;;;;;;25.60;12.68;;;;;;;3.75;60.87;95158.66;5055452;28;20044;-46
2022/02/04 15:32:01;;;;;;;26.67;11.77;;;;;;;3.59;62.01;95154.50;5047603;28;20055;-46
2022/02/04 15:34:27;;;;;;;23.85;13.25;;;;;;;3.41;64.20;95154.88;5047242;28;20107;-46
2022/02/04 15:36:54;;;;;;;28.63;13.38;;;;;;;3.36;64.56;95153.81;5045718;28;20061;-47
2022/02/04 15:39:26;;;;;;;29.45;15.68;;;;;;;3.31;65.24;95150.97;5045447;28;20049;-47
2022/02/04 15:41:57;;;;;;;25.65;13.55;;;;;;;3.12;66.44;95147.94;5050076;28;20051;-47
2022/02/04 15:49:44;;;;;;;27.98;13.13;;;;;;;2.75;67.09;95152.13;5045352;28;20106;-47
2022/02/04 15:57:42;;;;;;;63.03;35.05;;;;;;;2.20;70.06;95148.06;5050294;28;20057;-46
2022/02/04 16:05:14;;;;;;;31.20;12.43;;;;;;;1.63;73.16;95157.66;5046291;28;20040;-49
2022/02/04 16:07:41;;;;;;;28.63;13.50;;;;;;;1.51;73.54;95159.00;5048734;28;20502;-49
2022/02/04 16:13:22;;;;;;;27.00;13.70;;;;;;;1.26;73.63;95156.53;5046694;28;20040;-47
2022/02/04 16:15:54;;;;;;;21.92;11.63;;;;;;;1.18;73.54;95156.53;5045777;28;20051;-49
2022/02/04 16:18:26;;;;;;;20.13;11.60;;;;;;;1.08;74.28;95153.34;5054568;28;20988;-46
2022/02/04 16:23:45;;;;;;;21.92;9.75;;;;;;;0.99;74.96;95159.47;5047492;28;20045;-46
2022/02/04 16:28:54;;;;;;;33.35;10.20;;;;;;;0.75;75.97;95158.53;5044844;28;20049;-50
2022/02/04 16:31:22;;;;;;;23.75;10.88;;;;;;;0.70;75.13;95155.66;5049403;28;20049;-46
2022/02/04 16:33:49;;;;;;;25.10;10.70;;;;;;;0.59;75.53;95150.84;5050595;28;20395;-48
2022/02/04 16:36:22;;;;;;;27.88;10.23;;;;;;;0.45;76.06;95155.66;5055716;28;20395;-51
2022/02/04 16:38:55;;;;;;;18.45;9.18;;;;;;;0.33;76.69;95149.25;5049617;28;20532;-50
2022/02/04 16:41:30;;;;;;;26.95;10.02;;;;;;;0.32;76.53;95152.75;5050251;28;20051;-50
2022/02/04 16:43:57;;;;;;;43.90;17.58;;;;;;;0.29;75.82;95147.94;5056158;28;20452;-49
2022/02/04 16:46:25;;;;;;;44.58;15.32;;;;;;;0.26;75.71;95150.84;5049107;28;20106;-48
2022/02/04 16:48:52;;;;;;;37.10;16.05;;;;;;;0.15;77.29;95145.06;5049988;28;20064;-47
2022/02/04 16:51:19;;;;;;;39.25;16.90;;;;;;;0.15;77.35;95147.63;5051304;28;20481;-49
2022/02/04 16:53:45;;;;;;;30.20;16.10;;;;;;;0.07;77.62;95139.13;5048403;28;20095;-48
2022/02/04 16:56:12;;;;;;;46.17;15.45;;;;;;;0.08;77.54;95146.66;5049724;28;20049;-47
2022/02/04 16:58:39;;;;;;;35.05;15.68;;;;;;;0.01;77.59;95145.69;5048485;28;20052;-48
2022/02/04 17:01:06;;;;;;;32.28;15.95;;;;;;;-0.07;78.16;95145.69;5058579;28;20550;-47
2022/02/04 17:03:33;;;;;;;46.65;22.80;;;;;;;-0.15;78.81;95155.91;5048339;28;20037;-48
2022/02/04 17:06:03;;;;;;;102.90;41.25;;;;;;;-0.21;79.51;95153.00;5049741;28;20077;-47
2022/02/04 17:08:46;;;;;;;72.35;35.58;;;;;;;-0.22;79.49;95156.53;5048643;28;20041;-48
2022/02/04 17:11:30;;;;;;;98.15;47.13;;;;;;;-0.27;80.13;95147.69;5048429;28;20502;-46
2022/02/04 17:13:56;;;;;;;84.75;38.90;;;;;;;-0.30;80.61;95153.94;5050125;28;20391;-49
2022/02/04 17:16:23;;;;;;;88.20;40.25;;;;;;;-0.26;80.62;95147.53;5051481;28;20436;-47
2022/02/04 17:18:50;;;;;;;83.88;37.08;;;;;;;-0.32;80.95;95149.94;5052153;28;20072;-47
2022/02/04 17:21:23;;;;;;;64.45;30.90;;;;;;;-0.33;80.97;95148.31;5048823;28;20102;-47
2022/02/04 17:23:52;;;;;;;63.38;30.33;;;;;;;-0.38;80.67;95130.88;5047777;28;20538;-46
2022/02/04 17:26:21;;;;;;;65.63;26.35;;;;;;;-0.33;80.75;95149.13;5051344;28;20064;-51
2022/02/04 17:28:50;;;;;;;53.80;25.20;;;;;;;-0.45;81.29;95155.47;5046854;28;20182;-47
2022/02/04 17:31:18;;;;;;;49.00;23.52;;;;;;;-0.42;80.88;95161.09;5045451;28;20571;-48
2022/02/04 17:33:45;;;;;;;62.55;27.70;;;;;;;-0.46;80.79;95164.13;5049120;28;20476;-47
2022/02/04 17:36:12;;;;;;;72.90;29.33;;;;;;;-0.45;80.59;95163.16;5047472;28;20485;-52
2022/02/04 17:38:39;;;;;;;41.90;21.08;;;;;;;-0.47;79.90;95163.31;5047296;28;20040;-48
2022/02/04 17:41:08;;;;;;;22.80;12.05;;;;;;;-0.49;79.96;95165.22;5046771;28;20044;-49
2022/02/04 17:43:36;;;;;;;21.38;11.38;;;;;;;-0.62;80.32;95160.53;5051877;28;20050;-47
2022/02/04 17:46:04;;;;;;;20.92;9.98;;;;;;;-0.69;80.81;95154.41;5051092;28;20132;-47
2022/02/04 17:51:17;;;;;;;15.98;8.10;;;;;;;-0.87;81.65;95151.94;5048255;28;20580;-47
2022/02/04 17:53:56;;;;;;;20.65;11.13;;;;;;;-0.92;82.00;95163.56;5049165;28;20136;-48
2022/02/04 17:56:38;;;;;;;18.65;8.98;;;;;;;-0.88;81.75;95162.31;5046776;28;20052;-47
2022/02/04 18:01:52;;;;;;;15.82;8.68;;;;;;;-0.87;81.31;95161.38;5043317;28;20465;-48
2022/02/04 18:07:16;;;;;;;23.83;11.27;;;;;;;-0.89;81.19;95163.28;5042247;28;20045;-49
2022/02/04 18:09:45;;;;;;;38.10;17.85;;;;;;;-0.88;80.97;95154.63;5037659;28;20074;-49
2022/02/04 18:12:14;;;;;;;97.00;38.42;;;;;;;-0.89;80.75;95163.28;5038855;28;20067;-48
2022/02/04 18:14:45;;;;;;;65.22;23.77;;;;;;;-0.92;80.91;95163.56;5034427;28;20079;-47
2022/02/04 18:17:12;;;;;;;33.00;17.40;;;;;;;-0.96;80.78;95163.88;5035709;28;20114;-51
2022/02/04 18:19:41;;;;;;;27.48;12.88;;;;;;;-1.06;81.31;95163.19;5037798;28;20052;-50
2022/02/04 18:22:08;;;;;;;46.53;15.32;;;;;;;-1.28;82.64;95163.66;5039871;28;20057;-47
2022/02/04 18:24:36;;;;;;;33.80;14.38;;;;;;;-1.35;83.59;95164.28;5040297;28;20057;-50